Time;durP1;ratioP1;P1;durP2;ratioP2;P2;SDS_P1;SDS_P2;PMS_P1;PMS_P2;Temp;Humidity;BMP_temperature;BMP_pressure;BME280_temperature;BME280_humidity;BME280_pressure;Samples;Min_cycle;Max_cycle;Signal;HPM_P1;HPM_P2
2023/04/23 00:02:41;;;;;;;8.57;5.32;;;18.30;88.80;;;;;;4961121;28;20019;-52
2023/04/23 00:05:28;;;;;;;8.93;5.10;;;18.20;89.30;;;;;;4976068;28;20035;-48
2023/04/23 00:08:16;;;;;;;7.47;5.40;;;18.30;89.10;;;;;;4974160;28;20022;-50
2023/04/23 00:11:04;;;;;;;7.78;5.07;;;18.30;89.40;;;;;;4955463;28;20024;-52
2023/04/23 00:13:50;;;;;;;8.57;5.85;;;18.30;89.50;;;;;;4954880;28;20035;-52
2023/04/23 00:16:38;;;;;;;7.80;6.10;;;18.20;88.20;;;;;;4941050;28;20102;-55
2023/04/23 00:19:23;;;;;;;6.30;5.25;;;18.20;88.30;;;;;;4957649;28;20035;-48
2023/04/23 00:22:09;;;;;;;8.77;5.70;;;18.20;88.10;;;;;;4963929;28;20038;-53
2023/04/23 00:24:55;;;;;;;5.80;5.20;;;18.10;89.10;;;;;;4963706;28;20119;-54
2023/04/23 00:27:41;;;;;;;6.78;5.50;;;18.10;88.60;;;;;;4974240;28;20169;-53
2023/04/23 00:30:27;;;;;;;6.00;5.05;;;18.20;87.80;;;;;;4973661;28;20049;-56
2023/04/23 00:33:13;;;;;;;5.18;4.68;;;18.10;88.20;;;;;;4974121;28;20023;-56
2023/04/23 00:35:59;;;;;;;6.55;4.70;;;18.00;88.00;;;;;;4975919;28;20031;-55
2023/04/23 00:38:45;;;;;;;7.00;4.53;;;18.00;88.10;;;;;;4974001;28;20066;-53
2023/04/23 00:41:32;;;;;;;7.93;5.32;;;18.00;88.20;;;;;;4974273;28;20039;-56
2023/04/23 00:44:18;;;;;;;5.25;4.75;;;18.00;88.70;;;;;;4973640;28;20030;-57
2023/04/23 00:47:06;;;;;;;6.82;4.70;;;18.00;88.30;;;;;;4954786;28;20097;-55
2023/04/23 00:49:54;;;;;;;11.30;5.47;;;17.90;88.70;;;;;;4957449;28;20027;-53
2023/04/23 00:52:40;;;;;;;7.88;5.30;;;17.90;88.70;;;;;;4974001;28;20545;-58
2023/04/23 00:55:27;;;;;;;5.43;4.50;;;17.90;88.60;;;;;;4953627;28;20500;-58
2023/04/23 00:58:13;;;;;;;4.88;4.25;;;17.90;88.80;;;;;;4954083;28;20039;-58
2023/04/23 01:01:01;;;;;;;6.93;4.47;;;17.80;89.00;;;;;;4966170;28;20037;-51
2023/04/23 01:03:52;;;;;;;7.30;4.57;;;17.80;88.90;;;;;;4973520;28;20039;-56
2023/04/23 01:06:38;;;;;;;7.15;4.80;;;17.80;89.40;;;;;;4972530;28;20023;-55
2023/04/23 01:09:26;;;;;;;4.65;3.90;;;17.60;89.90;;;;;;4969234;28;20030;-56
2023/04/23 01:12:13;;;;;;;7.75;4.05;;;17.60;90.30;;;;;;4957052;28;20015;-57
2023/04/23 01:14:59;;;;;;;6.03;4.20;;;17.40;90.60;;;;;;4958048;28;20049;-58
2023/04/23 01:17:46;;;;;;;5.65;4.85;;;17.40;91.20;;;;;;4956002;28;20039;-56
2023/04/23 01:20:33;;;;;;;6.93;4.68;;;17.40;91.30;;;;;;4962860;28;20520;-57
2023/04/23 01:23:19;;;;;;;6.78;4.82;;;17.40;91.30;;;;;;4967767;28;20031;-55
2023/04/23 01:26:06;;;;;;;5.72;4.68;;;17.40;91.80;;;;;;4961111;28;20111;-57
2023/04/23 01:28:53;;;;;;;5.55;4.85;;;17.40;92.30;;;;;;4968927;28;20039;-51
2023/04/23 01:31:39;;;;;;;9.63;5.00;;;17.30;92.20;;;;;;4968516;28;20062;-54
2023/04/23 01:34:25;;;;;;;7.30;5.25;;;17.30;92.30;;;;;;4970054;28;20134;-54
2023/04/23 01:37:12;;;;;;;6.85;5.03;;;17.30;92.60;;;;;;4964312;28;20031;-52
2023/04/23 01:39:58;;;;;;;8.90;5.00;;;17.30;92.70;;;;;;4955536;28;20023;-53
2023/04/23 01:42:44;;;;;;;6.22;5.05;;;17.30;92.90;;;;;;4962977;28;20117;-52
2023/04/23 01:45:30;;;;;;;5.25;4.75;;;17.30;93.00;;;;;;4971459;28;20031;-52
2023/04/23 01:48:16;;;;;;;7.80;5.32;;;17.40;93.20;;;;;;4951609;28;20076;-53
2023/04/23 01:51:03;;;;;;;5.95;4.57;;;17.40;93.10;;;;;;4965807;28;20400;-56
2023/04/23 01:53:49;;;;;;;5.88;5.15;;;17.30;93.00;;;;;;4971942;28;20468;-53
2023/04/23 01:56:35;;;;;;;7.43;4.95;;;17.20;93.30;;;;;;4967675;28;20023;-52
2023/04/23 01:59:21;;;;;;;6.57;4.93;;;17.10;93.40;;;;;;4964896;28;20492;-54
2023/04/23 02:02:12;;;;;;;6.88;4.65;;;17.10;93.50;;;;;;4957999;28;20031;-51
2023/04/23 02:05:00;;;;;;;5.47;4.93;;;17.10;93.70;;;;;;4964475;28;20085;-55
2023/04/23 02:07:48;;;;;;;5.80;4.88;;;17.10;93.80;;;;;;4964288;28;20396;-54
2023/04/23 02:10:34;;;;;;;4.97;4.43;;;17.10;93.80;;;;;;4966262;28;20027;-50
2023/04/23 02:13:20;;;;;;;6.10;4.65;;;17.00;93.70;;;;;;4953599;28;20086;-56
2023/04/23 02:16:06;;;;;;;5.32;4.70;;;17.00;93.50;;;;;;4957826;28;20086;-52
2023/04/23 02:18:52;;;;;;;9.05;5.45;;;17.10;93.60;;;;;;4962272;28;20034;-56
2023/04/23 02:21:38;;;;;;;7.10;5.03;;;17.00;93.90;;;;;;4955826;28;20174;-53
2023/04/23 02:24:24;;;;;;;10.27;5.43;;;16.90;94.00;;;;;;4968210;28;20033;-58
2023/04/23 02:27:10;;;;;;;6.25;4.63;;;16.90;94.00;;;;;;4962864;28;20027;-54
2023/04/23 02:29:56;;;;;;;7.38;4.88;;;16.90;94.00;;;;;;4962223;28;20038;-52
2023/04/23 02:32:42;;;;;;;5.45;4.80;;;16.90;94.20;;;;;;4961277;28;20027;-57
2023/04/23 02:35:30;;;;;;;9.95;5.07;;;17.00;94.30;;;;;;4970847;28;20035;-56
2023/04/23 02:38:16;;;;;;;7.20;5.07;;;17.00;94.20;;;;;;4969527;28;20039;-52
2023/04/23 02:41:02;;;;;;;7.25;4.53;;;16.90;94.20;;;;;;4970021;28;20035;-54
2023/04/23 02:43:48;;;;;;;6.00;5.25;;;17.00;94.30;;;;;;4971335;28;20062;-52
2023/04/23 02:46:36;;;;;;;5.75;4.45;;;17.00;94.40;;;;;;4965492;28;20407;-51
2023/04/23 02:49:22;;;;;;;5.88;5.05;;;17.00;94.30;;;;;;4972555;28;20041;-55
2023/04/23 02:52:08;;;;;;;7.32;5.00;;;16.90;94.40;;;;;;4972230;28;20556;-54
2023/04/23 02:54:54;;;;;;;9.13;5.68;;;16.90;94.60;;;;;;4968845;28;20031;-54
2023/04/23 02:57:40;;;;;;;7.13;5.43;;;16.80;94.70;;;;;;4970819;28;20031;-51
2023/04/23 03:00:27;;;;;;;7.43;5.38;;;16.80;95.00;;;;;;4969873;28;20031;-54
2023/04/23 03:03:13;;;;;;;8.55;5.05;;;16.60;95.30;;;;;;4958362;28;20109;-58
2023/04/23 03:06:00;;;;;;;6.20;5.20;;;16.60;95.40;;;;;;4974369;28;20034;-50
2023/04/23 03:08:46;;;;;;;6.28;5.43;;;16.50;95.70;;;;;;4973039;28;20027;-55
2023/04/23 03:11:33;;;;;;;7.32;5.75;;;16.50;95.90;;;;;;4972577;28;20026;-52
2023/04/23 03:14:19;;;;;;;5.80;5.20;;;16.40;96.20;;;;;;4974660;28;20031;-51
2023/04/23 03:17:05;;;;;;;6.68;4.95;;;16.40;96.40;;;;;;4973421;28;20031;-56
2023/04/23 03:19:51;;;;;;;6.13;5.00;;;16.40;96.60;;;;;;4974500;28;20034;-55
2023/04/23 03:22:37;;;;;;;6.28;5.50;;;16.30;96.90;;;;;;4972779;28;20542;-56
2023/04/23 03:25:24;;;;;;;8.88;5.47;;;16.40;97.20;;;;;;4974141;28;20023;-55
2023/04/23 03:28:10;;;;;;;8.00;5.63;;;16.40;97.10;;;;;;4973226;28;20114;-58
2023/04/23 03:30:56;;;;;;;8.32;5.68;;;16.30;97.40;;;;;;4968861;28;20019;-57
2023/04/23 03:33:42;;;;;;;9.10;5.95;;;16.20;97.80;;;;;;4970166;28;20042;-56
2023/04/23 03:36:28;;;;;;;8.00;5.63;;;16.20;98.20;;;;;;4973798;28;20142;-54
2023/04/23 03:39:14;;;;;;;7.13;5.78;;;16.10;98.80;;;;;;4974400;28;20030;-57
2023/04/23 03:42:00;;;;;;;7.60;5.97;;;16.00;99.40;;;;;;4975878;28;20085;-54
2023/04/23 03:44:46;;;;;;;9.05;6.18;;;16.00;99.70;;;;;;4973209;28;20417;-57
2023/04/23 03:47:32;;;;;;;6.82;6.15;;;15.90;99.70;;;;;;4974917;28;20034;-53
2023/04/23 03:50:18;;;;;;;6.90;5.65;;;15.90;99.90;;;;;;4976145;28;20393;-56
2023/04/23 03:53:04;;;;;;;8.38;5.95;;;15.80;99.90;;;;;;4975925;28;20510;-57
2023/04/23 03:55:50;;;;;;;7.70;5.90;;;15.80;99.90;;;;;;4973433;28;20031;-55
2023/04/23 03:58:37;;;;;;;7.07;5.90;;;15.70;99.90;;;;;;4974286;28;20496;-54
2023/04/23 04:01:22;;;;;;;6.18;5.55;;;15.70;99.90;;;;;;4972741;28;20094;-54
2023/04/23 04:04:08;;;;;;;9.85;6.05;;;15.70;99.90;;;;;;4972420;28;20066;-54
2023/04/23 04:06:54;;;;;;;7.22;5.72;;;15.70;99.90;;;;;;4974976;28;20033;-54
2023/04/23 04:09:40;;;;;;;6.28;5.45;;;15.70;99.90;;;;;;4975413;28;20042;-52
2023/04/23 04:12:26;;;;;;;9.13;6.05;;;15.60;99.90;;;;;;4974140;28;20039;-54
2023/04/23 04:15:13;;;;;;;7.35;5.50;;;15.60;99.90;;;;;;4970547;28;20109;-53
2023/04/23 04:17:59;;;;;;;7.03;5.20;;;15.60;99.90;;;;;;4960434;28;20031;-56
2023/04/23 04:20:45;;;;;;;7.53;6.15;;;15.70;99.90;;;;;;4959167;28;20075;-56
2023/04/23 04:23:32;;;;;;;6.43;4.97;;;15.60;99.90;;;;;;4968015;28;20034;-56
2023/04/23 04:26:18;;;;;;;6.32;5.50;;;15.50;99.90;;;;;;4959767;28;20051;-57
2023/04/23 04:29:04;;;;;;;7.32;5.72;;;15.50;99.90;;;;;;4959806;28;20066;-56
2023/04/23 04:31:50;;;;;;;5.95;5.25;;;15.60;99.90;;;;;;4961628;28;20030;-54
2023/04/23 04:34:37;;;;;;;5.97;5.13;;;15.60;99.90;;;;;;4954202;28;20118;-54
2023/04/23 04:37:23;;;;;;;5.75;5.25;;;15.50;99.90;;;;;;4962936;28;20035;-53
2023/04/23 04:40:10;;;;;;;6.53;5.03;;;15.60;99.90;;;;;;4969298;28;20023;-53
2023/04/23 04:42:56;;;;;;;7.32;4.65;;;15.50;99.90;;;;;;4971365;28;20091;-55
2023/04/23 04:45:43;;;;;;;7.65;5.10;;;15.50;99.90;;;;;;4963044;28;20027;-57
2023/04/23 04:48:29;;;;;;;6.63;5.07;;;15.40;99.90;;;;;;4968907;28;20089;-52
2023/04/23 04:51:15;;;;;;;5.68;4.43;;;15.40;99.90;;;;;;4969088;28;20448;-54
2023/04/23 04:54:01;;;;;;;8.73;4.45;;;15.30;99.90;;;;;;4963882;28;20038;-53
2023/04/23 04:56:47;;;;;;;6.93;4.68;;;15.40;99.90;;;;;;4952797;28;20035;-55
2023/04/23 04:59:33;;;;;;;6.20;5.30;;;15.40;99.90;;;;;;4962826;28;20118;-52
2023/04/23 05:02:20;;;;;;;6.55;4.72;;;15.40;99.90;;;;;;4970995;28;20459;-56
2023/04/23 05:05:07;;;;;;;5.38;4.75;;;15.50;99.90;;;;;;4969293;28;20030;-57
2023/04/23 05:07:54;;;;;;;6.90;5.43;;;15.40;99.90;;;;;;4970288;28;20030;-56
2023/04/23 05:10:40;;;;;;;6.10;4.45;;;15.40;99.90;;;;;;4962195;28;20018;-57
2023/04/23 05:13:25;;;;;;;6.13;4.40;;;15.40;99.90;;;;;;4964900;28;20455;-52
2023/04/23 05:16:12;;;;;;;6.10;4.57;;;15.40;99.90;;;;;;4965472;28;20601;-57
2023/04/23 05:18:58;;;;;;;8.18;4.95;;;15.40;99.90;;;;;;4968580;28;20518;-55
2023/04/23 05:21:44;;;;;;;6.28;4.28;;;15.30;99.90;;;;;;4961250;28;20064;-50
2023/04/23 05:24:30;;;;;;;6.25;4.38;;;15.20;99.90;;;;;;4973742;28;20019;-48
2023/04/23 05:27:15;;;;;;;4.43;4.03;;;15.10;99.90;;;;;;4973243;28;20027;-51
2023/04/23 05:30:02;;;;;;;4.32;3.80;;;15.10;99.90;;;;;;4964124;28;20018;-49
2023/04/23 05:32:49;;;;;;;4.43;4.03;;;15.10;99.90;;;;;;4965317;28;20093;-52
2023/04/23 05:35:35;;;;;;;4.63;3.53;;;15.10;99.90;;;;;;4970564;28;20110;-54
2023/04/23 05:38:21;;;;;;;5.45;4.00;;;15.10;99.90;;;;;;4970259;28;20111;-52
2023/04/23 05:41:07;;;;;;;4.18;3.78;;;15.00;99.90;;;;;;4958389;28;20039;-51
2023/04/23 05:43:53;;;;;;;5.60;4.07;;;15.20;99.90;;;;;;4959901;28;20034;-63
2023/04/23 05:46:39;;;;;;;5.05;3.75;;;15.30;99.90;;;;;;4969438;28;20487;-49
2023/04/23 05:49:26;;;;;;;4.70;3.95;;;15.30;99.90;;;;;;4967183;28;20054;-49
2023/04/23 05:52:12;;;;;;;6.47;4.30;;;15.40;99.90;;;;;;4964420;28;20094;-48
2023/04/23 05:54:58;;;;;;;5.68;4.18;;;15.30;99.90;;;;;;4957286;28;20385;-53
2023/04/23 05:57:44;;;;;;;4.57;3.63;;;15.30;99.90;;;;;;4970064;28;20081;-52
2023/04/23 06:00:30;;;;;;;4.60;3.92;;;15.30;99.90;;;;;;4969088;28;20045;-61
2023/04/23 06:03:16;;;;;;;5.13;3.90;;;15.40;99.90;;;;;;4960632;28;20423;-47
2023/04/23 06:06:02;;;;;;;4.90;4.40;;;15.40;99.90;;;;;;4964082;28;20058;-48
2023/04/23 06:08:49;;;;;;;5.30;4.03;;;15.40;99.90;;;;;;4965698;28;20022;-53
2023/04/23 06:11:35;;;;;;;4.88;3.95;;;15.40;99.90;;;;;;4970052;28;20459;-52
2023/04/23 06:14:21;;;;;;;5.82;4.40;;;15.40;99.90;;;;;;4966845;28;20377;-51
2023/04/23 06:17:07;;;;;;;4.88;4.25;;;15.40;99.90;;;;;;4967921;28;20564;-53
2023/04/23 06:19:53;;;;;;;6.03;4.60;;;15.50;99.90;;;;;;4971284;28;20031;-51
2023/04/23 06:22:39;;;;;;;4.90;4.40;;;15.50;99.90;;;;;;4969316;28;20039;-51
2023/04/23 06:25:25;;;;;;;6.38;4.75;;;15.40;99.90;;;;;;4966732;28;20577;-53
2023/04/23 06:28:11;;;;;;;5.18;4.68;;;15.40;99.90;;;;;;4969091;28;20037;-50
2023/04/23 06:30:57;;;;;;;7.55;5.38;;;15.30;99.90;;;;;;4967950;28;20554;-54
2023/04/23 06:33:43;;;;;;;6.55;5.07;;;15.30;99.90;;;;;;4955885;28;20495;-63
2023/04/23 06:36:29;;;;;;;5.07;4.57;;;15.20;99.90;;;;;;4970443;28;20027;-53
2023/04/23 06:39:15;;;;;;;5.32;4.82;;;15.30;99.90;;;;;;4974543;28;20035;-52
2023/04/23 06:42:01;;;;;;;7.25;5.03;;;15.40;99.90;;;;;;4955831;28;20027;-51
2023/04/23 06:44:47;;;;;;;7.07;5.75;;;15.30;99.90;;;;;;4976111;28;20038;-66
2023/04/23 06:47:33;;;;;;;6.25;5.40;;;15.20;99.90;;;;;;4952012;28;20078;-51
2023/04/23 06:50:19;;;;;;;7.70;5.00;;;15.10;99.90;;;;;;4976245;28;20035;-50
2023/04/23 06:53:05;;;;;;;6.75;5.65;;;15.20;99.90;;;;;;4953318;28;20028;-50
2023/04/23 06:55:51;;;;;;;6.10;4.50;;;15.30;99.90;;;;;;4964084;28;20033;-49
2023/04/23 06:58:37;;;;;;;6.97;5.75;;;15.40;99.90;;;;;;4974194;28;20106;-54
2023/04/23 07:01:23;;;;;;;5.90;5.30;;;15.30;99.90;;;;;;4960004;28;20435;-49
2023/04/23 07:04:10;;;;;;;7.40;4.88;;;15.30;99.90;;;;;;4977026;28;20137;-53
2023/04/23 07:06:56;;;;;;;6.65;5.65;;;15.40;99.90;;;;;;4975123;28;20058;-50
2023/04/23 07:09:42;;;;;;;6.05;4.85;;;15.30;99.90;;;;;;4974678;28;20488;-52
2023/04/23 07:12:28;;;;;;;5.43;4.93;;;15.30;99.90;;;;;;4961459;28;20026;-47
2023/04/23 07:15:14;;;;;;;5.47;4.97;;;15.30;99.90;;;;;;4975205;28;20031;-54
2023/04/23 07:18:00;;;;;;;5.38;4.88;;;15.20;99.90;;;;;;4961653;28;20081;-49
2023/04/23 07:20:46;;;;;;;4.88;4.38;;;15.00;99.90;;;;;;4940416;28;1081784;-50
2023/04/23 07:23:32;;;;;;;4.00;3.45;;;14.90;99.90;;;;;;4977019;28;20035;-51
2023/04/23 07:26:20;;;;;;;4.80;3.60;;;14.90;99.90;;;;;;4964585;28;20074;-51
2023/04/23 07:29:06;;;;;;;3.10;2.80;;;14.80;99.90;;;;;;4978206;28;20034;-54
2023/04/23 07:31:52;;;;;;;5.75;3.40;;;14.90;99.90;;;;;;4976413;28;20019;-52
2023/04/23 07:34:38;;;;;;;4.45;3.30;;;14.90;99.90;;;;;;4975982;28;20510;-50
2023/04/23 07:37:24;;;;;;;4.88;3.63;;;14.70;99.90;;;;;;4976825;28;20026;-51
2023/04/23 07:40:10;;;;;;;4.97;3.95;;;14.80;99.90;;;;;;4976694;28;20031;-49
2023/04/23 07:42:58;;;;;;;7.47;4.40;;;15.00;99.90;;;;;;4975649;28;20066;-52
2023/04/23 07:45:43;;;;;;;5.82;4.22;;;15.30;99.90;;;;;;4975184;28;20027;-48
2023/04/23 07:48:30;;;;;;;5.70;4.50;;;15.40;99.90;;;;;;4976306;28;20027;-47
2023/04/23 07:51:16;;;;;;;5.43;4.93;;;15.30;99.90;;;;;;4975720;28;20027;-50
2023/04/23 07:54:02;;;;;;;5.88;5.13;;;15.20;99.90;;;;;;4975393;28;20062;-47
2023/04/23 07:56:48;;;;;;;6.13;5.53;;;15.10;99.90;;;;;;4974791;28;20531;-49
2023/04/23 07:59:34;;;;;;;6.00;5.43;;;14.80;99.90;;;;;;4976747;28;20031;-50
2023/04/23 08:02:24;;;;;;;5.90;5.30;;;15.00;99.90;;;;;;4961111;28;20023;-46
2023/04/23 08:05:10;;;;;;;8.52;6.35;;;14.90;99.90;;;;;;4974754;28;20385;-47
2023/04/23 08:07:56;;;;;;;6.55;5.38;;;14.90;99.90;;;;;;4975896;28;20053;-51
2023/04/23 08:10:42;;;;;;;8.18;5.70;;;15.00;99.90;;;;;;4974837;28;20095;-46
2023/04/23 08:13:28;;;;;;;6.40;5.80;;;15.10;99.90;;;;;;4976350;28;20027;-46
2023/04/23 08:16:14;;;;;;;6.97;6.28;;;15.30;99.90;;;;;;4975905;28;20074;-50
2023/04/23 08:19:00;;;;;;;6.80;6.10;;;15.30;99.90;;;;;;4973886;28;20399;-52
2023/04/23 08:21:47;;;;;;;8.48;7.65;;;15.40;99.90;;;;;;4976124;28;20050;-48
2023/04/23 08:24:33;;;;;;;10.60;8.55;;;15.30;99.90;;;;;;4974447;28;20035;-49
2023/04/23 08:27:19;;;;;;;9.88;8.80;;;15.30;99.90;;;;;;4974157;28;20027;-48
2023/04/23 08:30:06;;;;;;;9.85;8.85;;;15.20;99.90;;;;;;4973651;28;20166;-47
2023/04/23 08:32:52;;;;;;;10.02;9.10;;;15.20;99.90;;;;;;4973024;28;20034;-47
2023/04/23 08:35:38;;;;;;;9.73;8.70;;;15.20;99.90;;;;;;4974191;28;20495;-51
2023/04/23 08:38:24;;;;;;;10.23;8.75;;;15.20;99.90;;;;;;4973163;28;20496;-50
2023/04/23 08:41:13;;;;;;;9.18;8.23;;;15.20;99.90;;;;;;4975867;28;20113;-50
2023/04/23 08:44:17;;;;;;;11.13;9.20;;;15.30;99.90;;;;;;4973432;28;20540;-46
2023/04/23 08:47:07;;;;;;;10.30;9.30;;;15.20;99.90;;;;;;4975415;28;20102;-46
2023/04/23 08:49:54;;;;;;;9.63;8.73;;;15.20;99.90;;;;;;4973209;28;20022;-46
2023/04/23 08:52:41;;;;;;;11.10;8.30;;;15.20;99.90;;;;;;4975350;28;20112;-46
2023/04/23 08:55:27;;;;;;;9.60;7.75;;;15.20;99.90;;;;;;4973159;28;20026;-49
2023/04/23 08:58:14;;;;;;;10.98;8.27;;;15.30;99.90;;;;;;4975396;28;20555;-47
2023/04/23 09:01:00;;;;;;;9.23;8.32;;;15.40;99.90;;;;;;4974847;28;20127;-48
2023/04/23 09:03:47;;;;;;;11.02;8.52;;;15.60;99.90;;;;;;4974792;28;20560;-48
2023/04/23 09:06:33;;;;;;;8.93;8.02;;;15.70;99.90;;;;;;4974094;28;20508;-49
2023/04/23 09:09:22;;;;;;;10.13;8.70;;;16.00;99.90;;;;;;4972922;28;20027;-47
2023/04/23 09:12:08;;;;;;;8.68;7.78;;;16.20;99.90;;;;;;4973422;28;20034;-48
2023/04/23 09:14:55;;;;;;;9.02;8.13;;;16.40;99.90;;;;;;4973448;28;20495;-49
2023/04/23 09:17:43;;;;;;;9.27;8.38;;;16.70;99.90;;;;;;4973601;28;20118;-51
2023/04/23 09:20:29;;;;;;;9.60;8.60;;;16.80;99.90;;;;;;4975294;28;20113;-50
2023/04/23 09:23:15;;;;;;;9.88;7.93;;;17.00;99.90;;;;;;4974330;28;20172;-46
2023/04/23 09:26:05;;;;;;;11.10;8.18;;;17.20;99.90;;;;;;4973178;28;20496;-52
2023/04/23 09:28:51;;;;;;;9.65;8.65;;;17.40;99.90;;;;;;4972822;28;20031;-52
2023/04/23 09:31:37;;;;;;;8.95;8.07;;;17.30;99.90;;;;;;4973146;28;20109;-49
2023/04/23 09:34:24;;;;;;;8.10;7.38;;;17.50;99.90;;;;;;4972097;28;20455;-48
2023/04/23 09:37:10;;;;;;;8.30;7.53;;;17.30;99.90;;;;;;4972297;28;20082;-49
2023/04/23 09:40:02;;;;;;;9.13;7.65;;;17.20;99.90;;;;;;4973143;28;20030;-49
2023/04/23 09:42:51;;;;;;;8.13;7.38;;;17.30;99.90;;;;;;4973332;28;20031;-49
2023/04/23 09:45:48;;;;;;;6.90;6.20;;;17.40;99.90;;;;;;4960006;28;20026;-50
2023/04/23 09:48:43;;;;;;;33.60;13.75;;;17.40;99.10;;;;;;4959876;28;20530;-47
2023/04/23 09:51:30;;;;;;;7.40;5.00;;;17.40;98.90;;;;;;4972333;28;20037;-48
2023/04/23 09:54:20;;;;;;;5.45;4.88;;;17.30;98.30;;;;;;4972977;28;20039;-47
2023/04/23 09:57:07;;;;;;;6.22;5.18;;;17.40;98.20;;;;;;4972605;28;20443;-51
2023/04/23 09:59:56;;;;;;;7.85;5.80;;;17.40;97.10;;;;;;4980032;28;20027;-51
2023/04/23 10:02:47;;;;;;;6.72;5.15;;;17.40;97.60;;;;;;4991346;28;20463;-55
2023/04/23 10:05:41;;;;;;;5.15;4.38;;;17.50;97.10;;;;;;4991931;28;20026;-49
2023/04/23 10:08:28;;;;;;;4.50;4.00;;;17.20;96.50;;;;;;4990675;28;20534;-50
2023/04/23 10:11:14;;;;;;;5.28;4.78;;;17.20;96.30;;;;;;4992482;28;20483;-50
2023/04/23 10:14:00;;;;;;;5.35;4.20;;;17.40;95.10;;;;;;4978260;28;20456;-48
2023/04/23 10:16:46;;;;;;;6.25;4.75;;;17.20;95.00;;;;;;4984120;28;20034;-50
2023/04/23 10:19:33;;;;;;;5.63;5.03;;;17.30;95.20;;;;;;4971490;28;20049;-47
2023/04/23 10:22:21;;;;;;;7.75;6.82;;;17.50;95.00;;;;;;4971977;28;20045;-50
2023/04/23 10:25:11;;;;;;;7.28;6.57;;;17.60;94.90;;;;;;4972047;28;20388;-48
2023/04/23 10:27:59;;;;;;;8.43;6.78;;;17.50;95.20;;;;;;4967836;28;20093;-47
2023/04/23 10:30:47;;;;;;;7.30;6.60;;;17.10;95.80;;;;;;4971138;28;20034;-48
2023/04/23 10:33:34;;;;;;;8.13;7.32;;;17.30;95.70;;;;;;4964776;28;20023;-54
2023/04/23 10:36:24;;;;;;;7.63;6.88;;;17.50;95.40;;;;;;4968413;28;20046;-53
2023/04/23 10:39:12;;;;;;;6.80;5.70;;;17.50;95.20;;;;;;4972760;28;20558;-51
2023/04/23 10:42:00;;;;;;;6.38;5.72;;;17.50;94.80;;;;;;4969191;28;20027;-46
2023/04/23 10:44:46;;;;;;;6.00;5.40;;;17.50;94.60;;;;;;4970328;28;20136;-53
2023/04/23 10:47:32;;;;;;;6.63;5.65;;;17.80;94.00;;;;;;4972345;28;20030;-53
2023/04/23 10:50:21;;;;;;;6.22;5.63;;;17.70;94.20;;;;;;4966281;28;20062;-45
2023/04/23 10:53:17;;;;;;;5.30;4.80;;;17.70;94.00;;;;;;4952823;28;20046;-50
2023/04/23 10:56:08;;;;;;;6.88;5.28;;;17.70;93.90;;;;;;4953079;28;20357;-49
2023/04/23 10:58:54;;;;;;;4.95;4.45;;;17.50;93.80;;;;;;4970740;28;20026;-50
2023/04/23 11:01:40;;;;;;;5.80;5.03;;;17.60;93.60;;;;;;4977550;28;20031;-54
2023/04/23 11:04:28;;;;;;;5.50;4.95;;;17.60;93.70;;;;;;4969774;28;20031;-51
2023/04/23 11:07:17;;;;;;;5.70;4.82;;;17.80;93.60;;;;;;4977277;28;20034;-50
2023/04/23 11:10:13;;;;;;;7.38;4.45;;;18.20;93.40;;;;;;4966765;28;20023;-49
2023/04/23 11:13:23;;;;;;;5.35;4.68;;;18.10;92.40;;;;;;4967870;28;20034;-51
2023/04/23 11:16:21;;;;;;;4.90;4.40;;;18.10;92.30;;;;;;4969732;28;20137;-48
2023/04/23 11:19:11;;;;;;;5.28;4.55;;;18.20;92.30;;;;;;4969275;28;20380;-54
2023/04/23 11:22:00;;;;;;;5.53;4.07;;;18.10;92.20;;;;;;4969468;28;20051;-46
2023/04/23 11:24:46;;;;;;;4.88;4.25;;;18.10;92.20;;;;;;4973613;28;20050;-47
2023/04/23 11:27:32;;;;;;;4.75;4.00;;;17.90;92.20;;;;;;4970565;28;20381;-50
2023/04/23 11:30:21;;;;;;;4.35;3.95;;;17.90;92.30;;;;;;4973474;28;20030;-49
2023/04/23 11:33:07;;;;;;;5.55;3.72;;;18.20;91.90;;;;;;4972233;28;20051;-49
2023/04/23 11:35:53;;;;;;;4.30;3.90;;;18.30;91.90;;;;;;4959052;28;20030;-50
2023/04/23 11:38:39;;;;;;;4.88;4.30;;;18.30;91.70;;;;;;4973537;28;20023;-49
2023/04/23 11:41:25;;;;;;;4.53;3.72;;;18.60;91.00;;;;;;4975195;28;20027;-47
2023/04/23 11:44:11;;;;;;;5.65;3.72;;;18.40;90.00;;;;;;4972919;28;20034;-47
2023/04/23 11:47:01;;;;;;;4.32;3.80;;;18.00;90.50;;;;;;4959536;28;20579;-52
2023/04/23 11:49:47;;;;;;;5.90;3.80;;;18.20;90.40;;;;;;4975372;28;20027;-53
2023/04/23 11:52:33;;;;;;;3.65;3.22;;;18.30;90.60;;;;;;4960309;28;20023;-48
2023/04/23 11:55:19;;;;;;;3.65;3.10;;;18.20;90.30;;;;;;4975007;28;20542;-51
2023/04/23 11:58:05;;;;;;;7.47;3.42;;;18.00;90.50;;;;;;4958012;28;20030;-51
2023/04/23 12:00:58;;;;;;;3.60;3.15;;;17.80;90.00;;;;;;4973476;28;20031;-50
2023/04/23 12:03:48;;;;;;;5.25;3.42;;;17.80;90.00;;;;;;4973611;28;20500;-49
2023/04/23 12:06:33;;;;;;;4.35;3.42;;;18.00;90.00;;;;;;4973279;28;20041;-51
2023/04/23 12:09:22;;;;;;;4.03;3.00;;;18.30;89.80;;;;;;4973824;28;20023;-49
2023/04/23 12:12:08;;;;;;;3.38;3.00;;;18.40;88.80;;;;;;4970790;28;20058;-48
2023/04/23 12:15:03;;;;;;;5.15;3.15;;;18.40;88.70;;;;;;4971320;28;20105;-52
2023/04/23 12:17:50;;;;;;;4.75;3.40;;;18.50;88.80;;;;;;4973089;28;20399;-48
2023/04/23 12:20:36;;;;;;;4.35;3.42;;;18.80;88.90;;;;;;4973573;28;20049;-48
2023/04/23 12:23:28;;;;;;;4.10;3.30;;;18.90;88.50;;;;;;4972975;28;20582;-48
2023/04/23 12:26:15;;;;;;;4.72;3.72;;;18.90;87.50;;;;;;4973754;28;20139;-48
2023/04/23 12:29:01;;;;;;;4.70;3.00;;;19.10;86.70;;;;;;4973924;28;20027;-50
2023/04/23 12:31:48;;;;;;;3.38;3.03;;;19.10;87.80;;;;;;4973118;28;20027;-49
2023/04/23 12:34:34;;;;;;;5.05;3.20;;;19.30;87.90;;;;;;4973063;28;20515;-52
2023/04/23 12:37:25;;;;;;;3.38;3.08;;;19.50;86.80;;;;;;4974958;28;20081;-49
2023/04/23 12:40:11;;;;;;;3.70;2.70;;;19.50;86.70;;;;;;4975112;28;20031;-47
2023/04/23 12:42:57;;;;;;;3.70;3.00;;;19.60;86.70;;;;;;4978507;28;20085;-50
2023/04/23 12:45:44;;;;;;;3.65;3.25;;;19.90;86.60;;;;;;4977583;28;20027;-52
2023/04/23 12:48:30;;;;;;;3.33;2.90;;;19.90;86.60;;;;;;4976473;28;20113;-54
2023/04/23 12:51:16;;;;;;;3.78;3.15;;;20.30;85.30;;;;;;4975831;28;20134;-50
2023/04/23 12:54:02;;;;;;;4.07;3.45;;;20.50;84.60;;;;;;4973515;28;20023;-49
2023/04/23 12:56:48;;;;;;;5.05;3.03;;;20.40;84.00;;;;;;4973292;28;20022;-47
2023/04/23 12:59:34;;;;;;;3.72;3.33;;;20.20;84.50;;;;;;4973387;28;20035;-52
2023/04/23 13:02:20;;;;;;;3.78;3.13;;;20.60;84.00;;;;;;4973601;28;20041;-54
2023/04/23 13:05:07;;;;;;;4.10;2.70;;;20.70;81.60;;;;;;4960845;28;20042;-52
2023/04/23 13:07:52;;;;;;;5.18;2.95;;;20.70;82.00;;;;;;4972890;28;20447;-48
2023/04/23 13:10:38;;;;;;;3.75;3.10;;;21.10;82.30;;;;;;4973144;28;20109;-49
2023/04/23 13:13:24;;;;;;;3.28;2.90;;;21.20;79.20;;;;;;4972861;28;20107;-49
2023/04/23 13:16:10;;;;;;;5.43;2.80;;;21.00;78.70;;;;;;4973046;28;20046;-51
2023/04/23 13:18:56;;;;;;;3.80;3.00;;;20.80;78.60;;;;;;4973040;28;20035;-49
2023/04/23 13:21:43;;;;;;;4.38;2.92;;;20.70;79.50;;;;;;4975361;28;20081;-50
2023/04/23 13:24:29;;;;;;;4.40;3.70;;;20.70;79.30;;;;;;4972956;28;20031;-53
2023/04/23 13:27:14;;;;;;;8.52;4.10;;;20.90;79.30;;;;;;4972778;28;20532;-50
2023/04/23 13:30:00;;;;;;;3.83;2.78;;;21.40;79.20;;;;;;4972770;28;20054;-46
2023/04/23 13:32:46;;;;;;;2.97;2.60;;;21.40;77.80;;;;;;4973852;28;20066;-48
2023/04/23 13:35:36;;;;;;;5.00;3.10;;;21.20;77.10;;;;;;4974985;28;20110;-49
2023/04/23 13:38:23;;;;;;;6.45;4.20;;;21.20;77.20;;;;;;4974826;28;20109;-48
2023/04/23 13:41:09;;;;;;;3.00;2.70;;;21.50;76.40;;;;;;4974842;28;20522;-52
2023/04/23 13:43:55;;;;;;;3.28;2.67;;;21.30;74.10;;;;;;4972829;28;20035;-51
2023/04/23 13:46:41;;;;;;;3.78;2.90;;;21.10;75.80;;;;;;4972142;28;20023;-52
2023/04/23 13:49:27;;;;;;;5.65;4.60;;;21.30;75.40;;;;;;4974262;28;20029;-50
2023/04/23 13:52:13;;;;;;;4.03;2.90;;;21.40;76.20;;;;;;4960737;28;20054;-54
2023/04/23 13:55:01;;;;;;;4.38;3.03;;;21.30;75.40;;;;;;4972731;28;20026;-50
2023/04/23 13:57:50;;;;;;;3.08;2.50;;;21.50;74.60;;;;;;4959476;28;20035;-50
2023/04/23 14:00:37;;;;;;;4.43;3.08;;;21.40;74.20;;;;;;4973275;28;20045;-51
2023/04/23 14:03:23;;;;;;;3.35;2.90;;;21.20;74.10;;;;;;4972580;28;20499;-52
2023/04/23 14:06:09;;;;;;;6.30;3.25;;;21.20;74.90;;;;;;4959633;28;20035;-50
2023/04/23 14:08:55;;;;;;;11.93;8.90;;;21.50;75.20;;;;;;4972541;28;20026;-54
2023/04/23 14:11:41;;;;;;;3.25;2.67;;;21.80;74.80;;;;;;4959180;28;20440;-54
2023/04/23 14:14:27;;;;;;;3.58;2.95;;;21.90;73.10;;;;;;4972133;28;20503;-55
2023/04/23 14:17:13;;;;;;;4.25;2.80;;;21.70;73.50;;;;;;4973159;28;20096;-51
2023/04/23 14:19:59;;;;;;;3.85;2.83;;;21.00;72.80;;;;;;4972237;28;20506;-55
2023/04/23 14:22:54;;;;;;;4.45;3.08;;;20.60;74.20;;;;;;4972204;28;20035;-53
2023/04/23 14:25:40;;;;;;;3.25;2.80;;;20.40;75.00;;;;;;4972211;28;20487;-55
2023/04/23 14:28:28;;;;;;;3.35;2.70;;;20.50;75.10;;;;;;4973807;28;20046;-52